KSEA/SEA METAR and TAF weather

Enter ICAO airport designator
Station Type Date Time Source
KSEA METAR 2019/08/22 04:58 UTC NOAA

KSEA 220458Z 02011KT 10SM BKN006 BKN043 18/16 A2999 RMK AO2 T01780156 $


Station Type Date Time Source
KSEA Decoded METAR 2019/08/22 04:58 UTC NOAA

Station name not available
Aug 22, 2019 - 12:58 AM EDT / 2019.08.22 0458 UTC
Wind: from the NNE (020 degrees) at 13 MPH (11 KT):0
Visibility: 10 mile(s):0
Sky conditions: mostly cloudy
Temperature: 64.0 F (17.8 C)
Dew Point: 60.1 F (15.6 C)
Relative Humidity: 86%
Pressure (altimeter): 29.99 in. Hg (1015 hPa)
ob: KSEA 220458Z 02011KT 10SM BKN006 BKN043 18/16 A2999 RMK AO2 T01780156
cycle: 5

Station Type Date Time Source
KSEA TAF 2019/08/22 03:36 UTC NOAA

TAF
AMD KSEA 220234Z 2203/2306 VRB04KT 2SM -SHRA FEW003 OVC013
FM220600 18005KT 6SM -SHRA OVC015
FM221300 17004KT P6SM SCT008 OVC012
FM221800 23005KT P6SM BKN025
FM222300 30007KT P6SM SCT040 SCT250
FM230500 32005KT P6SM SCT200

Example: see airport list